createdAt,value
2023-10-18T00:01:29.429Z,9.63
2023-10-18T00:04:12.175Z,10.80
2023-10-18T00:06:56.012Z,10.23
2023-10-18T00:09:51.174Z,5.13
2023-10-18T00:12:35.128Z,6.30
2023-10-18T00:15:15.781Z,6.70
2023-10-18T00:20:37.000Z,8.33
2023-10-18T00:23:17.376Z,6.47
2023-10-18T00:26:01.303Z,5.73
2023-10-18T00:28:41.760Z,7.27
2023-10-18T00:31:22.711Z,7.33
2023-10-18T00:34:06.027Z,4.77
2023-10-18T00:36:46.929Z,6.13
2023-10-18T00:39:30.238Z,6.97
2023-10-18T00:42:29.417Z,8.33
2023-10-18T00:45:10.359Z,6.33
2023-10-18T00:47:51.103Z,6.17
2023-10-18T00:50:35.160Z,5.73
2023-10-18T00:53:23.900Z,7.90
2023-10-18T00:56:06.135Z,8.00
2023-10-18T00:58:47.734Z,5.77
2023-10-18T01:01:28.252Z,5.77
2023-10-18T01:04:08.752Z,5.40
2023-10-18T01:06:51.905Z,4.10
2023-10-18T01:09:32.084Z,5.20
2023-10-18T01:12:13.162Z,4.70
2023-10-18T01:14:54.039Z,5.27
2023-10-18T01:17:44.123Z,8.47
2023-10-18T01:20:33.199Z,5.60
2023-10-18T01:23:15.988Z,7.23
2023-10-18T01:25:56.824Z,6.00
2023-10-18T01:28:36.843Z,5.90
2023-10-18T01:31:16.951Z,6.83
2023-10-18T01:33:57.071Z,6.83
2023-10-18T01:36:40.344Z,5.07
2023-10-18T01:39:23.173Z,5.37
2023-10-18T01:42:06.531Z,5.50
2023-10-18T01:44:50.024Z,6.07
2023-10-18T01:47:43.547Z,5.57
2023-10-18T01:50:32.587Z,5.90
2023-10-18T01:53:19.860Z,8.30
2023-10-18T01:56:02.358Z,10.03
2023-10-18T01:58:42.337Z,6.33
2023-10-18T02:01:22.531Z,7.27
2023-10-18T02:04:04.188Z,5.60
2023-10-18T02:06:44.347Z,5.67
2023-10-18T02:09:29.393Z,5.10
2023-10-18T02:12:09.710Z,5.10
2023-10-18T02:14:51.308Z,6.07
2023-10-18T02:17:32.007Z,6.60
2023-10-18T02:20:27.982Z,5.13
2023-10-18T02:23:12.280Z,5.97
2023-10-18T02:25:54.091Z,5.37
2023-10-18T02:28:34.109Z,6.83
2023-10-18T02:31:22.479Z,7.63
2023-10-18T02:34:18.562Z,6.73
2023-10-18T02:37:06.113Z,5.70
2023-10-18T02:39:51.179Z,6.70
2023-10-18T02:42:39.998Z,7.13
2023-10-18T02:45:23.259Z,6.03
2023-10-18T02:48:03.938Z,6.90
2023-10-18T02:50:44.570Z,5.83
2023-10-18T02:53:24.914Z,7.67
2023-10-18T02:56:05.748Z,10.07
2023-10-18T02:58:48.011Z,6.40
2023-10-18T03:01:29.791Z,8.67
2023-10-18T03:04:10.693Z,8.50
2023-10-18T03:06:56.935Z,8.33
2023-10-18T03:09:37.362Z,9.10
2023-10-18T03:12:17.499Z,7.57
2023-10-18T03:14:58.209Z,8.73
2023-10-18T03:17:38.379Z,7.90
2023-10-18T03:20:28.133Z,11.13
2023-10-18T03:23:08.526Z,6.67
2023-10-18T03:25:49.827Z,7.20
2023-10-18T03:28:41.989Z,9.93
2023-10-18T03:31:23.154Z,8.13
2023-10-18T03:34:04.043Z,8.23
2023-10-18T03:36:55.948Z,10.67
2023-10-18T03:39:36.035Z,10.70
2023-10-18T03:42:32.157Z,11.00
2023-10-18T03:45:12.565Z,12.83
2023-10-18T03:47:59.092Z,10.20
2023-10-18T03:50:42.230Z,9.27
2023-10-18T03:53:22.813Z,9.93
2023-10-18T03:56:06.136Z,8.60
2023-10-18T03:58:50.693Z,8.77
2023-10-18T04:01:42.663Z,10.03
2023-10-18T04:04:22.964Z,8.40
2023-10-18T04:07:21.476Z,12.40
2023-10-18T04:10:02.004Z,8.87
2023-10-18T04:12:44.904Z,7.43
2023-10-18T04:15:30.986Z,9.03
2023-10-18T04:18:10.910Z,11.43
2023-10-18T04:20:53.379Z,8.97
2023-10-18T04:23:35.696Z,12.00
2023-10-18T04:26:37.084Z,8.37
2023-10-18T04:29:34.677Z,10.67
2023-10-18T04:32:21.214Z,12.83
2023-10-18T04:35:01.400Z,9.50
2023-10-18T04:37:41.913Z,10.00
2023-10-18T04:40:29.384Z,14.67
2023-10-18T04:43:11.117Z,13.57
2023-10-18T04:46:26.676Z,10.37
2023-10-18T04:49:10.062Z,8.63
2023-10-18T04:51:50.622Z,10.80
2023-10-18T04:54:42.389Z,12.97
2023-10-18T04:57:23.492Z,10.73
2023-10-18T05:00:24.107Z,13.03
2023-10-18T05:03:14.664Z,10.63
2023-10-18T05:05:57.530Z,12.67
2023-10-18T05:08:37.691Z,10.73
2023-10-18T05:11:24.097Z,12.33
2023-10-18T05:14:04.228Z,14.27
2023-10-18T05:16:46.238Z,11.77
2023-10-18T05:19:29.669Z,15.37
2023-10-18T05:22:10.732Z,10.37
2023-10-18T05:25:13.197Z,8.90
2023-10-18T05:28:23.040Z,8.80
2023-10-18T05:31:09.079Z,10.43
2023-10-18T05:33:50.194Z,10.63
2023-10-18T05:36:30.384Z,9.87
2023-10-18T05:39:28.471Z,10.67
2023-10-18T05:42:14.933Z,9.57
2023-10-18T05:44:55.096Z,9.13
2023-10-18T05:47:35.946Z,8.30
2023-10-18T05:50:16.504Z,12.67
2023-10-18T05:52:59.208Z,8.50
2023-10-18T05:55:42.399Z,12.00
2023-10-18T05:58:29.311Z,10.67
2023-10-18T06:01:09.509Z,12.07
2023-10-18T06:03:49.734Z,10.57
2023-10-18T06:06:31.362Z,12.23
2023-10-18T06:09:27.391Z,9.67
2023-10-18T06:12:07.717Z,10.50
2023-10-18T06:14:47.918Z,13.63
2023-10-18T06:17:28.154Z,16.23
2023-10-18T06:20:08.800Z,11.40
2023-10-18T06:22:51.493Z,12.83
2023-10-18T06:25:35.951Z,11.90
2023-10-18T06:28:25.554Z,13.77
2023-10-18T06:31:06.057Z,12.03
2023-10-18T06:33:45.989Z,11.63
2023-10-18T06:36:27.624Z,9.70
2023-10-18T06:39:07.936Z,11.80
2023-10-18T06:41:48.053Z,11.60
2023-10-18T06:44:31.898Z,12.37
2023-10-18T06:47:14.683Z,9.47
2023-10-18T06:50:15.230Z,11.37
2023-10-18T06:52:59.954Z,10.07
2023-10-18T06:55:40.679Z,10.73
2023-10-18T06:58:20.957Z,14.00
2023-10-18T07:01:15.459Z,12.93
2023-10-18T07:03:55.989Z,17.70
2023-10-18T07:06:37.212Z,15.70
2023-10-18T07:09:26.071Z,18.57
2023-10-18T07:12:11.973Z,13.07
2023-10-18T07:14:54.152Z,13.57
2023-10-18T07:17:35.396Z,14.63
2023-10-18T07:20:18.486Z,13.97
2023-10-18T07:22:58.855Z,13.93
2023-10-18T07:25:43.362Z,13.23
2023-10-18T07:28:30.587Z,13.83
2023-10-18T07:31:11.882Z,13.93
2023-10-18T07:33:52.214Z,15.70
2023-10-18T07:36:38.798Z,10.50
2023-10-18T07:39:25.398Z,16.00
2023-10-18T07:42:06.572Z,14.33
2023-10-18T07:44:47.989Z,14.00
2023-10-18T07:47:33.341Z,12.87
2023-10-18T07:50:32.397Z,12.93
2023-10-18T07:53:12.726Z,12.33
2023-10-18T07:55:58.343Z,12.60
2023-10-18T07:58:49.078Z,12.80
2023-10-18T08:01:48.334Z,16.60
2023-10-18T08:04:31.350Z,15.30
2023-10-18T08:07:16.647Z,17.97
2023-10-18T08:09:59.318Z,15.53
2023-10-18T08:12:39.915Z,16.83
2023-10-18T08:15:24.019Z,14.07
2023-10-18T08:18:16.235Z,11.87
2023-10-18T08:20:56.637Z,10.63
2023-10-18T08:23:36.965Z,12.37
2023-10-18T08:26:17.049Z,8.23
2023-10-18T08:28:57.279Z,7.00
2023-10-18T08:31:37.613Z,5.93
2023-10-18T08:34:19.281Z,5.73
2023-10-18T08:37:07.844Z,6.60
2023-10-18T08:39:54.350Z,8.10
2023-10-18T08:42:40.617Z,7.57
2023-10-18T08:45:24.564Z,5.10
2023-10-18T08:48:11.681Z,7.07
2023-10-18T08:50:52.106Z,9.70
2023-10-18T08:53:34.671Z,6.53
2023-10-18T08:56:15.404Z,7.63
2023-10-18T08:58:58.077Z,8.57
2023-10-18T09:01:59.962Z,6.97
2023-10-18T09:04:45.833Z,5.73
2023-10-18T09:07:44.592Z,5.47
2023-10-18T09:10:36.700Z,5.27
2023-10-18T09:13:19.700Z,6.00
2023-10-18T09:16:05.600Z,7.67
2023-10-18T09:18:46.091Z,6.33
2023-10-18T09:21:33.873Z,5.87
2023-10-18T09:24:15.642Z,5.03
2023-10-18T09:26:58.431Z,5.90
2023-10-18T09:29:38.661Z,5.20
2023-10-18T09:32:33.572Z,5.07
2023-10-18T09:35:16.480Z,4.83
2023-10-18T09:38:01.858Z,4.17
2023-10-18T09:40:43.271Z,3.97
2023-10-18T09:43:23.439Z,5.10
2023-10-18T09:46:09.116Z,4.43
2023-10-18T09:48:49.268Z,6.57
2023-10-18T09:51:31.076Z,4.63
2023-10-18T09:54:14.256Z,7.90
2023-10-18T09:56:59.633Z,7.20
2023-10-18T09:59:48.438Z,4.87
2023-10-18T10:02:29.920Z,3.17
2023-10-18T10:05:25.669Z,3.90
2023-10-18T10:08:08.748Z,5.37
2023-10-18T10:10:50.894Z,3.80
2023-10-18T10:13:31.407Z,3.93
2023-10-18T10:16:14.950Z,3.30
2023-10-18T10:18:57.036Z,4.20
2023-10-18T10:21:38.301Z,5.13
2023-10-18T10:24:32.608Z,3.00
2023-10-18T10:30:38.806Z,4.37
2023-10-18T10:33:22.616Z,3.83
2023-10-18T10:36:06.114Z,3.80
2023-10-18T10:37:36.398Z,3.70
2023-10-18T10:38:55.802Z,5.27
2023-10-18T10:41:35.941Z,2.67
2023-10-18T10:44:31.678Z,2.60
2023-10-18T10:47:30.595Z,4.90
2023-10-18T10:50:32.051Z,3.60
2023-10-18T10:53:30.047Z,4.80
2023-10-18T10:56:20.038Z,4.33
2023-10-18T10:59:08.484Z,6.10
2023-10-18T11:01:57.527Z,4.70
2023-10-18T11:04:50.396Z,5.27
2023-10-18T11:07:30.739Z,3.13
2023-10-18T11:10:17.963Z,3.93
2023-10-18T11:12:58.274Z,3.97
2023-10-18T11:15:38.281Z,2.83
2023-10-18T11:18:21.630Z,3.43
2023-10-18T11:21:13.839Z,4.50
2023-10-18T11:24:02.532Z,4.53
2023-10-18T11:26:42.754Z,5.00
2023-10-18T11:29:25.949Z,5.85
2023-10-18T11:32:16.708Z,3.30
2023-10-18T11:35:19.625Z,3.00
2023-10-18T11:38:01.551Z,3.60
2023-10-18T11:40:45.617Z,4.35
2023-10-18T11:43:28.824Z,4.28
2023-10-18T11:46:09.946Z,3.72
2023-10-18T11:48:55.335Z,6.05
2023-10-18T11:51:43.234Z,5.28
2023-10-18T11:54:35.690Z,3.20
2023-10-18T11:57:36.597Z,3.55
2023-10-18T12:00:25.868Z,6.68
2023-10-18T12:03:06.377Z,5.93
2023-10-18T12:05:46.735Z,4.05
2023-10-18T12:08:31.303Z,3.22
2023-10-18T12:11:12.683Z,4.88
2023-10-18T12:13:54.141Z,5.13
2023-10-18T12:16:34.607Z,3.97
2023-10-18T12:19:15.426Z,4.97
2023-10-18T12:21:56.023Z,4.05
2023-10-18T12:24:37.309Z,3.33
2023-10-18T12:27:22.330Z,3.72
2023-10-18T12:30:31.701Z,5.07
2023-10-18T12:33:20.433Z,4.72
2023-10-18T12:36:01.773Z,5.55
2023-10-18T12:38:44.461Z,4.30
2023-10-18T12:41:33.817Z,3.22
2023-10-18T12:44:19.200Z,3.17
2023-10-18T12:47:00.023Z,4.18
2023-10-18T12:49:45.617Z,3.88
2023-10-18T12:52:37.416Z,3.28
2023-10-18T12:55:34.227Z,3.97
2023-10-18T12:58:20.423Z,4.55
2023-10-18T13:01:06.901Z,3.33
2023-10-18T13:03:58.037Z,4.20
2023-10-18T13:06:45.097Z,3.22
2023-10-18T13:09:25.822Z,3.70
2023-10-18T13:12:09.293Z,4.13
2023-10-18T13:14:49.503Z,3.38
2023-10-18T13:17:33.490Z,3.08
2023-10-18T13:20:17.143Z,3.92
2023-10-18T13:22:57.474Z,2.65
2023-10-18T13:25:52.962Z,3.25
2023-10-18T13:28:41.162Z,4.63
2023-10-18T13:31:24.615Z,3.67
2023-10-18T13:34:08.154Z,2.47
2023-10-18T13:36:52.542Z,3.50
2023-10-18T13:39:33.280Z,4.15
2023-10-18T13:42:13.850Z,3.92
2023-10-18T13:44:54.271Z,5.65
2023-10-18T13:47:34.718Z,4.80
2023-10-18T13:50:19.126Z,3.28
2023-10-18T13:52:59.352Z,3.75
2023-10-18T13:55:40.993Z,3.80
2023-10-18T13:58:22.243Z,4.63
2023-10-18T14:01:06.403Z,4.88
2023-10-18T14:03:49.405Z,4.80
2023-10-18T14:06:47.666Z,3.05
2023-10-18T14:09:35.838Z,3.35
2023-10-18T14:12:16.684Z,40.90
2023-10-18T14:14:57.260Z,7.40
2023-10-18T14:17:37.892Z,11.35
2023-10-18T14:20:17.976Z,4.80
2023-10-18T14:22:58.184Z,5.22
2023-10-18T14:25:39.299Z,3.92
2023-10-18T14:28:20.215Z,4.68
2023-10-18T14:31:01.267Z,4.65
2023-10-18T14:33:57.419Z,3.67
2023-10-18T14:36:41.502Z,3.58
2023-10-18T14:42:08.454Z,4.97
2023-10-18T14:44:49.009Z,4.10
2023-10-18T14:47:33.016Z,3.33
2023-10-18T14:50:13.431Z,6.05
2023-10-18T14:52:53.556Z,3.30
2023-10-18T14:55:35.410Z,4.38
2023-10-18T14:58:15.219Z,4.82
2023-10-18T15:00:55.301Z,4.78
2023-10-18T15:03:35.534Z,3.38
2023-10-18T15:06:20.627Z,6.00
2023-10-18T15:09:01.241Z,4.63
2023-10-18T15:11:41.254Z,5.60
2023-10-18T15:14:23.037Z,5.45
2023-10-18T15:17:03.752Z,6.63
2023-10-18T15:19:44.330Z,5.28
2023-10-18T15:22:24.805Z,6.18
2023-10-18T15:25:10.308Z,7.90
2023-10-18T15:27:51.850Z,4.38
2023-10-18T15:30:32.848Z,8.13
2023-10-18T15:33:15.028Z,8.70
2023-10-18T15:35:55.760Z,5.72
2023-10-18T15:38:36.026Z,4.88
2023-10-18T15:41:19.448Z,4.07
2023-10-18T15:44:01.467Z,4.50
2023-10-18T15:46:42.466Z,3.90
2023-10-18T15:49:22.728Z,3.00
2023-10-18T15:52:02.823Z,4.35
2023-10-18T15:54:43.584Z,5.70
2023-10-18T15:57:23.981Z,4.85
2023-10-18T16:00:08.944Z,5.07
2023-10-18T16:02:50.860Z,5.35
2023-10-18T16:05:32.969Z,2.80
2023-10-18T16:08:13.554Z,4.57
2023-10-18T16:10:53.901Z,3.87
2023-10-18T16:13:34.846Z,4.73
2023-10-18T16:16:15.117Z,5.37
2023-10-18T16:18:59.032Z,5.40
2023-10-18T16:21:42.120Z,3.77
2023-10-18T16:24:23.813Z,3.80
2023-10-18T16:27:05.652Z,5.37
2023-10-18T16:29:45.614Z,7.27
2023-10-18T16:32:25.778Z,4.87
2023-10-18T16:35:08.627Z,4.47
2023-10-18T16:37:49.212Z,5.23
2023-10-18T16:40:29.274Z,5.53
2023-10-18T16:43:09.709Z,7.07
2023-10-18T16:45:49.622Z,6.40
2023-10-18T16:48:31.207Z,8.83
2023-10-18T16:51:12.539Z,5.40
2023-10-18T16:53:52.760Z,4.27
2023-10-18T16:56:32.982Z,6.83
2023-10-18T16:59:13.322Z,4.87
2023-10-18T17:01:53.353Z,4.43
2023-10-18T17:04:33.530Z,4.83
2023-10-18T17:07:13.470Z,10.57
2023-10-18T17:09:53.817Z,7.20
2023-10-18T17:12:33.855Z,7.07
2023-10-18T17:15:17.222Z,8.83
2023-10-18T17:17:57.669Z,3.30
2023-10-18T17:20:38.824Z,7.47
2023-10-18T17:23:20.076Z,7.57
2023-10-18T17:26:00.757Z,6.87
2023-10-18T17:28:41.344Z,4.17
2023-10-18T17:31:22.227Z,5.20
2023-10-18T17:34:02.820Z,5.50
2023-10-18T17:36:43.346Z,5.67
2023-10-18T17:39:23.331Z,6.33
2023-10-18T17:42:04.803Z,6.10
2023-10-18T17:44:45.089Z,3.70
2023-10-18T17:47:25.459Z,5.03
2023-10-18T17:50:10.537Z,4.17
2023-10-18T17:52:52.924Z,4.17
2023-10-18T17:55:33.252Z,5.33
2023-10-18T17:58:16.144Z,5.07
2023-10-18T18:00:56.378Z,6.73
2023-10-18T18:03:37.449Z,5.23
2023-10-18T18:06:17.757Z,5.30
2023-10-18T18:08:58.105Z,8.13
2023-10-18T18:11:38.684Z,4.90
2023-10-18T18:14:22.786Z,6.00
2023-10-18T18:17:04.258Z,5.30
2023-10-18T18:19:44.494Z,4.77
2023-10-18T18:22:24.708Z,5.20
2023-10-18T18:25:05.331Z,6.00
2023-10-18T18:27:45.293Z,4.37
2023-10-18T18:30:25.404Z,5.70
2023-10-18T18:33:05.974Z,6.77
2023-10-18T18:35:47.322Z,4.83
2023-10-18T18:38:27.678Z,4.73
2023-10-18T18:41:09.164Z,4.33
2023-10-18T18:43:49.188Z,6.97
2023-10-18T18:46:38.482Z,8.57
2023-10-18T18:49:19.835Z,6.10
2023-10-18T18:51:59.937Z,8.13
2023-10-18T18:54:40.145Z,5.37
2023-10-18T18:57:20.117Z,5.10
2023-10-18T19:00:00.796Z,6.43
2023-10-18T19:02:41.935Z,8.30
2023-10-18T19:05:23.730Z,5.47
2023-10-18T19:08:07.789Z,5.47
2023-10-18T19:10:48.857Z,6.10
2023-10-18T19:13:29.078Z,4.40
2023-10-18T19:16:09.780Z,5.30
2023-10-18T19:18:49.992Z,6.00
2023-10-18T19:21:31.353Z,4.97
2023-10-18T19:24:11.490Z,6.90
2023-10-18T19:26:53.034Z,6.23
2023-10-18T19:29:33.515Z,8.17
2023-10-18T19:32:16.756Z,6.77
2023-10-18T19:34:57.490Z,6.17
2023-10-18T19:37:39.071Z,5.63
2023-10-18T19:40:19.842Z,4.87
2023-10-18T19:43:00.007Z,7.73
2023-10-18T19:45:40.356Z,5.63
2023-10-18T19:48:20.330Z,4.73
2023-10-18T19:51:04.070Z,6.53
2023-10-18T19:53:45.727Z,7.73
2023-10-18T19:56:25.772Z,5.87
2023-10-18T19:59:05.706Z,5.70
2023-10-18T20:01:45.958Z,6.03
2023-10-18T20:04:27.845Z,5.30
2023-10-18T20:07:08.034Z,6.80
2023-10-18T20:09:48.057Z,6.67
2023-10-18T20:12:28.151Z,5.30
2023-10-18T20:15:09.426Z,9.77
2023-10-18T20:17:49.801Z,7.00
2023-10-18T20:20:30.208Z,8.67
2023-10-18T20:23:10.624Z,5.60
2023-10-18T20:26:00.915Z,7.53
2023-10-18T20:28:41.698Z,6.27
2023-10-18T20:31:27.198Z,8.93
2023-10-18T20:34:08.288Z,5.43
2023-10-18T20:36:48.274Z,5.07
2023-10-18T20:39:40.098Z,5.50
2023-10-18T20:42:25.922Z,6.37
2023-10-18T20:45:18.685Z,7.33
2023-10-18T20:48:00.421Z,6.97
2023-10-18T20:50:41.423Z,7.07
2023-10-18T20:53:21.763Z,7.93
2023-10-18T20:56:01.717Z,6.63
2023-10-18T20:58:42.260Z,7.83
2023-10-18T21:01:22.519Z,6.30
2023-10-18T21:04:03.064Z,6.83
2023-10-18T21:06:48.106Z,7.53
2023-10-18T21:09:28.379Z,6.90
2023-10-18T21:12:08.981Z,5.93
2023-10-18T21:14:50.138Z,5.80
2023-10-18T21:17:30.561Z,8.67
2023-10-18T21:20:14.871Z,6.80
2023-10-18T21:22:58.912Z,8.53
2023-10-18T21:25:39.218Z,6.60
2023-10-18T21:28:20.025Z,7.03
2023-10-18T21:31:04.620Z,6.30
2023-10-18T21:33:45.287Z,6.87
2023-10-18T21:36:25.569Z,7.37
2023-10-18T21:39:07.644Z,7.93
2023-10-18T21:41:48.191Z,7.90
2023-10-18T21:44:28.522Z,8.03
2023-10-18T21:47:08.536Z,7.97
2023-10-18T21:49:50.293Z,11.07
2023-10-18T21:52:31.952Z,7.73
2023-10-18T21:55:13.347Z,7.70
2023-10-18T21:57:53.530Z,8.07
2023-10-18T22:00:39.364Z,7.57
2023-10-18T22:03:27.016Z,7.87
2023-10-18T22:06:07.939Z,8.63
2023-10-18T22:08:50.655Z,8.47
2023-10-18T22:11:31.681Z,7.33
2023-10-18T22:14:20.837Z,9.20
2023-10-18T22:17:06.736Z,10.03
2023-10-18T22:19:51.604Z,9.40
2023-10-18T22:22:34.268Z,9.10
2023-10-18T22:25:22.360Z,9.63
2023-10-18T22:28:02.289Z,8.53
2023-10-18T22:30:44.790Z,11.97
2023-10-18T22:33:26.425Z,10.03
2023-10-18T22:36:10.735Z,8.53
2023-10-18T22:38:51.714Z,11.40
2023-10-18T22:41:37.504Z,9.97
2023-10-18T22:44:34.166Z,10.77
2023-10-18T22:47:21.379Z,13.17
2023-10-18T22:50:02.530Z,13.50
2023-10-18T22:52:45.873Z,12.13
2023-10-18T22:55:29.316Z,12.37
2023-10-18T22:58:13.331Z,12.33
2023-10-18T23:00:55.014Z,11.53
2023-10-18T23:03:35.318Z,13.87
2023-10-18T23:06:15.842Z,13.70
2023-10-18T23:09:08.184Z,12.63
2023-10-18T23:11:51.766Z,14.13
2023-10-18T23:14:32.047Z,16.23
2023-10-18T23:17:16.980Z,15.30
2023-10-18T23:20:05.237Z,15.90
2023-10-18T23:22:48.821Z,15.13
2023-10-18T23:25:47.569Z,16.23
2023-10-18T23:28:31.995Z,16.27
2023-10-18T23:31:13.079Z,15.43
2023-10-18T23:33:55.548Z,18.00
2023-10-18T23:36:37.893Z,16.07
2023-10-18T23:39:18.170Z,19.13
2023-10-18T23:42:16.348Z,16.10
2023-10-18T23:44:56.766Z,19.33
2023-10-18T23:47:45.471Z,16.33
2023-10-18T23:50:25.965Z,18.67
2023-10-18T23:53:14.730Z,17.17
2023-10-18T23:56:03.882Z,16.40
2023-10-18T23:58:50.805Z,19.27
